Time;durP1;ratioP1;P1;durP2;ratioP2;P2;SDS_P1;SDS_P2;PMS_P1;PMS_P2;Temp;Humidity;BMP_temperature;BMP_pressure;BME280_temperature;BME280_humidity;BME280_pressure;Samples;Min_cycle;Max_cycle;Signal;HPM_P1;HPM_P2
2021/08/06 00:01:14;;;;;;;14.68;3.05;;;;;;;15.89;87.96;99416.94;5088165;28;20034;-75
2021/08/06 00:04:00;;;;;;;12.63;3.15;;;;;;;15.84;87.98;99414.38;5094142;28;20090;-74
2021/08/06 00:06:46;;;;;;;11.80;2.75;;;;;;;15.80;87.68;99414.28;5098716;28;20047;-75
2021/08/06 00:09:34;;;;;;;8.18;2.45;;;;;;;15.82;88.00;99413.91;5085163;28;20035;-75
2021/08/06 00:12:20;;;;;;;13.23;3.15;;;;;;;15.80;87.83;99413.47;5098970;28;20064;-75
2021/08/06 00:15:06;;;;;;;13.93;2.40;;;;;;;15.79;88.07;99415.44;5097240;28;20035;-75
2021/08/06 00:17:52;;;;;;;16.38;3.08;;;;;;;15.77;88.54;99425.38;5098815;28;20522;-75
2021/08/06 00:20:38;;;;;;;13.02;3.17;;;;;;;15.76;87.98;99412.53;5113454;28;20031;-75
2021/08/06 00:23:24;;;;;;;14.75;3.08;;;;;;;15.75;88.21;99406.13;5097205;27;20035;-75
2021/08/06 00:26:10;;;;;;;13.23;2.60;;;;;;;15.74;87.54;99407.31;5082000;28;20063;-74
2021/08/06 00:28:56;;;;;;;11.32;2.70;;;;;;;15.76;87.91;99418.13;5094037;28;20031;-75
2021/08/06 00:31:42;;;;;;;12.80;2.40;;;;;;;15.75;87.87;99422.94;5086494;28;20061;-75
2021/08/06 00:34:27;;;;;;;16.88;3.00;;;;;;;15.73;87.62;99419.66;5099278;27;20035;-75
2021/08/06 00:37:13;;;;;;;13.85;3.10;;;;;;;15.70;88.51;99425.97;5095176;28;20053;-75
2021/08/06 00:39:59;;;;;;;12.82;3.03;;;;;;;15.69;87.79;99418.75;5089353;28;20033;-75
2021/08/06 00:42:45;;;;;;;12.23;3.15;;;;;;;15.68;88.11;99413.47;5103034;28;20479;-75
2021/08/06 00:45:31;;;;;;;11.52;2.75;;;;;;;15.68;88.11;99419.06;5089029;28;20023;-75
2021/08/06 00:48:17;;;;;;;13.07;3.10;;;;;;;15.67;88.03;99414.66;5077824;28;20063;-75
2021/08/06 00:51:03;;;;;;;14.30;2.97;;;;;;;15.64;88.50;99416.16;5104963;28;20066;-75
2021/08/06 00:53:49;;;;;;;8.65;2.30;;;;;;;15.63;88.46;99411.75;5046420;28;1306195;-75
2021/08/06 00:56:35;;;;;;;9.52;2.20;;;;;;;15.62;88.10;99415.72;5101551;27;20030;-75
2021/08/06 00:59:20;;;;;;;11.48;2.15;;;;;;;15.63;88.55;99408.97;5076656;28;20035;-75
2021/08/06 01:02:32;;;;;;;8.82;2.22;;;;;;;15.61;88.20;99402.91;5111711;28;20036;-75
2021/08/06 01:05:19;;;;;;;11.35;2.50;;;;;;;15.59;88.24;99405.22;5135077;27;20449;-75
2021/08/06 01:08:13;;;;;;;12.07;3.00;;;;;;;15.59;88.72;99403.22;5092539;28;20030;-75
2021/08/06 01:11:00;;;;;;;10.13;2.25;;;;;;;15.58;88.61;99404.41;5118680;28;20028;-75
2021/08/06 01:13:51;;;;;;;11.30;2.38;;;;;;;15.57;88.25;99405.59;5098879;28;20031;-75
2021/08/06 01:16:36;;;;;;;15.35;3.17;;;;;;;15.58;88.35;99406.41;5119671;28;20035;-75
2021/08/06 01:19:32;;;;;;;14.50;2.65;;;;;;;15.55;88.19;99407.94;5085450;28;20086;-75
2021/08/06 01:22:25;;;;;;;9.98;2.38;;;;;;;15.54;87.90;99406.28;5112313;28;20024;-75
2021/08/06 01:25:13;;;;;;;12.25;2.97;;;;;;;15.55;87.92;99402.31;5092750;28;20043;-75
2021/08/06 01:27:59;;;;;;;6.82;1.98;;;;;;;15.48;88.30;99401.28;5108485;27;20135;-75
2021/08/06 01:30:45;;;;;;;11.65;2.47;;;;;;;15.45;88.42;99396.41;5090684;28;20031;-75
2021/08/06 01:33:31;;;;;;;10.68;2.42;;;;;;;15.46;88.12;99395.22;5098987;28;20552;-75
2021/08/06 01:36:17;;;;;;;7.50;2.08;;;;;;;15.40;87.84;99401.06;5088021;28;20059;-75
2021/08/06 01:39:03;;;;;;;8.93;2.60;;;;;;;15.36;87.94;99402.16;5090930;28;20035;-75
2021/08/06 01:42:21;;;;;;;10.55;2.08;;;;;;;15.32;88.38;99404.84;5100551;28;20418;-75
2021/08/06 01:45:08;;;;;;;7.07;2.10;;;;;;;15.34;88.17;99404.47;5100303;27;20031;-75
2021/08/06 01:47:54;;;;;;;11.65;1.95;;;;;;;15.29;88.68;99408.31;5104575;28;20027;-75
2021/08/06 01:50:42;;;;;;;10.10;1.77;;;;;;;15.28;88.68;99415.09;5095102;27;20085;-75
2021/08/06 01:53:27;;;;;;;10.82;1.80;;;;;;;15.24;88.81;99414.19;5099718;28;20496;-75
2021/08/06 01:56:18;;;;;;;8.98;1.95;;;;;;;15.23;88.67;99412.53;5090221;27;20032;-75
2021/08/06 01:59:04;;;;;;;10.23;2.22;;;;;;;15.19;89.31;99408.81;5105820;27;20035;-75
2021/08/06 02:01:50;;;;;;;7.22;1.98;;;;;;;15.21;89.08;99417.69;5078246;27;20031;-75
2021/08/06 02:04:36;;;;;;;8.70;2.20;;;;;;;15.19;89.05;99408.81;5094116;27;20502;-75
2021/08/06 02:07:22;;;;;;;10.68;1.98;;;;;;;15.17;89.22;99408.34;5105456;28;20164;-75
2021/08/06 02:10:08;;;;;;;9.82;1.48;;;;;;;15.16;89.70;99413.13;5105039;27;20130;-75
2021/08/06 02:12:55;;;;;;;7.10;1.90;;;;;;;15.16;89.12;99406.72;5093381;27;20483;-75
2021/08/06 02:15:41;;;;;;;6.72;1.80;;;;;;;15.17;88.57;99409.16;5095389;28;20036;-74
2021/08/06 02:18:27;;;;;;;7.63;1.80;;;;;;;15.16;89.41;99415.13;5094901;27;20058;-75
2021/08/06 02:21:14;;;;;;;9.98;1.95;;;;;;;15.16;88.54;99417.91;5108288;27;20087;-75
2021/08/06 02:24:05;;;;;;;6.93;1.70;;;;;;;15.16;89.12;99417.91;5107251;27;20038;-75
2021/08/06 02:26:51;;;;;;;7.95;2.05;;;;;;;15.15;89.18;99416.25;5103109;28;20039;-75
2021/08/06 02:29:37;;;;;;;11.70;2.35;;;;;;;15.15;89.14;99413.47;5094310;27;20038;-75
2021/08/06 02:32:23;;;;;;;11.48;2.00;;;;;;;15.15;89.37;99408.69;5093719;27;20065;-75
2021/08/06 02:35:09;;;;;;;12.43;2.40;;;;;;;15.14;88.98;99403.47;5083945;27;20042;-74
2021/08/06 02:37:55;;;;;;;12.40;2.35;;;;;;;15.13;88.75;99407.44;5107668;27;20027;-74
2021/08/06 02:40:43;;;;;;;8.15;2.28;;;;;;;15.14;89.41;99411.84;5099964;28;20448;-75
2021/08/06 02:43:28;;;;;;;8.80;2.28;;;;;;;15.12;89.65;99405.78;5089835;27;20111;-75
2021/08/06 02:46:17;;;;;;;9.70;2.05;;;;;;;15.11;89.29;99412.56;5093470;27;20073;-75
2021/08/06 02:49:03;;;;;;;11.80;1.98;;;;;;;15.09;89.21;99418.47;5108525;27;20045;-75
2021/08/06 02:51:49;;;;;;;9.43;2.47;;;;;;;15.10;89.30;99419.28;5093741;27;20062;-75
2021/08/06 02:54:35;;;;;;;14.23;2.60;;;;;;;15.10;88.91;99417.34;5093223;28;20438;-75
2021/08/06 02:57:20;;;;;;;11.98;2.33;;;;;;;15.13;89.06;99421.41;5083062;27;20035;-75
2021/08/06 03:00:07;;;;;;;11.63;2.22;;;;;;;15.10;89.45;99414.53;5073921;28;20088;-75
2021/08/06 03:02:53;;;;;;;11.20;2.33;;;;;;;15.09;89.78;99420.47;5087752;28;20050;-75
2021/08/06 03:05:38;;;;;;;12.13;2.05;;;;;;;15.08;89.54;99410.47;5105030;27;20042;-75
2021/08/06 03:08:24;;;;;;;7.20;1.88;;;;;;;15.09;89.42;99429.66;5098826;27;20407;-75
2021/08/06 03:11:10;;;;;;;11.20;2.20;;;;;;;15.08;89.15;99421.66;5115228;28;20510;-75
2021/08/06 03:13:56;;;;;;;10.90;2.60;;;;;;;15.10;89.42;99428.53;5088617;28;20552;-75
2021/08/06 03:16:41;;;;;;;10.20;2.13;;;;;;;15.08;89.08;99424.44;5102702;28;20035;-75
2021/08/06 03:19:27;;;;;;;9.70;1.92;;;;;;;15.06;90.00;99423.97;5097233;27;20035;-75
2021/08/06 03:22:13;;;;;;;7.20;1.75;;;;;;;15.05;89.36;99425.16;5088299;28;20059;-75
2021/08/06 03:24:59;;;;;;;9.77;2.10;;;;;;;15.06;89.62;99418.38;5101739;28;20081;-75
2021/08/06 03:27:45;;;;;;;8.20;1.88;;;;;;;15.04;89.55;99415.91;5114376;27;20092;-75
2021/08/06 03:30:30;;;;;;;7.03;1.80;;;;;;;15.04;89.90;99426.28;5099789;27;20039;-75
2021/08/06 03:33:16;;;;;;;7.82;1.40;;;;;;;15.02;90.13;99423.06;5090176;28;20031;-75
2021/08/06 03:36:03;;;;;;;9.88;2.13;;;;;;;15.03;89.98;99430.25;5087602;28;20034;-75
2021/08/06 03:38:49;;;;;;;13.50;2.15;;;;;;;15.01;90.38;99421.41;5066546;28;20454;-75
2021/08/06 03:41:35;;;;;;;14.02;2.30;;;;;;;15.01;90.12;99413.81;5059550;28;20043;-75
2021/08/06 03:44:20;;;;;;;7.63;1.58;;;;;;;15.03;90.40;99416.28;5078174;28;20062;-75
2021/08/06 03:47:06;;;;;;;9.65;1.88;;;;;;;15.04;90.12;99415.13;5076781;28;20043;-75
2021/08/06 03:49:52;;;;;;;9.20;1.77;;;;;;;15.02;89.80;99421.06;5087042;28;20032;-75
2021/08/06 03:52:38;;;;;;;10.98;2.50;;;;;;;15.02;90.23;99420.25;5086829;28;20126;-75
2021/08/06 03:55:24;;;;;;;8.98;1.98;;;;;;;15.05;90.29;99419.56;5066834;28;20040;-75
2021/08/06 03:58:09;;;;;;;6.15;1.30;;;;;;;15.03;89.86;99425.47;5071164;28;20046;-75
2021/08/06 04:00:56;;;;;;;5.50;1.58;;;;;;;15.04;90.26;99415.13;5085721;28;20157;-75
2021/08/06 04:03:42;;;;;;;7.63;1.60;;;;;;;15.03;90.43;99424.69;5080880;28;20036;-75
2021/08/06 04:06:27;;;;;;;9.25;2.13;;;;;;;15.01;90.00;99422.22;5067451;28;20067;-74
2021/08/06 04:09:13;;;;;;;8.18;1.77;;;;;;;15.04;89.61;99431.88;5065824;28;20038;-75
2021/08/06 04:11:59;;;;;;;8.05;2.00;;;;;;;15.01;91.07;99425.00;5073158;28;20079;-75
2021/08/06 04:14:45;;;;;;;4.85;1.67;;;;;;;15.02;89.84;99426.66;5060389;28;20060;-75
2021/08/06 04:17:30;;;;;;;8.52;1.80;;;;;;;15.01;89.89;99432.59;5072871;28;20144;-75
2021/08/06 04:20:16;;;;;;;10.82;2.15;;;;;;;15.02;90.13;99434.25;5071441;28;20126;-74
2021/08/06 04:23:02;;;;;;;9.10;1.75;;;;;;;15.03;90.41;99424.69;5081411;28;20040;-74
2021/08/06 04:25:48;;;;;;;13.43;2.15;;;;;;;15.00;90.80;99442.16;5075066;28;20031;-75
2021/08/06 04:28:34;;;;;;;7.10;1.70;;;;;;;15.02;90.79;99431.44;5085495;28;20044;-75
2021/08/06 04:31:20;;;;;;;8.63;1.83;;;;;;;15.02;90.79;99431.44;5072541;28;20043;-74
2021/08/06 04:34:06;;;;;;;8.50;1.77;;;;;;;15.01;91.18;99440.97;5060931;28;20035;-74
2021/08/06 04:36:53;;;;;;;5.90;1.55;;;;;;;15.01;90.63;99438.19;5069300;28;20028;-75
2021/08/06 04:39:39;;;;;;;7.97;1.80;;;;;;;15.03;90.73;99431.06;5086079;28;20039;-75
2021/08/06 04:42:25;;;;;;;9.60;1.60;;;;;;;15.02;91.09;99434.25;5062684;28;20035;-75
2021/08/06 04:45:11;;;;;;;11.75;2.03;;;;;;;15.02;90.96;99439.84;5083323;28;20035;-75
2021/08/06 04:48:00;;;;;;;5.45;1.58;;;;;;;15.03;90.17;99439.47;5074431;28;20101;-75
2021/08/06 04:50:46;;;;;;;8.80;2.03;;;;;;;15.05;90.79;99453.09;5079291;28;20044;-75
2021/08/06 04:53:34;;;;;;;10.25;1.73;;;;;;;15.06;90.60;99447.16;5084589;28;20078;-75
2021/08/06 04:56:19;;;;;;;7.93;1.63;;;;;;;15.05;90.34;99453.09;5062437;28;20120;-75
2021/08/06 04:59:05;;;;;;;7.40;1.65;;;;;;;15.06;90.60;99458.34;5070997;28;20511;-75
2021/08/06 05:01:51;;;;;;;9.50;1.65;;;;;;;15.07;90.65;99459.97;5089920;28;20040;-75
2021/08/06 05:04:37;;;;;;;11.73;2.08;;;;;;;15.07;91.32;99470.31;5077794;28;20032;-74
2021/08/06 05:07:23;;;;;;;8.85;1.85;;;;;;;15.05;90.23;99462.31;5088958;28;20154;-75
2021/08/06 05:10:09;;;;;;;10.70;1.92;;;;;;;15.07;91.03;99468.38;5059174;28;20028;-75
2021/08/06 05:12:54;;;;;;;5.70;1.67;;;;;;;15.07;90.75;99468.38;5087442;28;20480;-75
2021/08/06 05:15:40;;;;;;;9.45;2.28;;;;;;;15.09;90.91;99473.59;5097424;28;20027;-75
2021/08/06 05:18:26;;;;;;;5.40;1.73;;;;;;;15.08;90.23;99467.19;5082982;28;20061;-75
2021/08/06 05:21:12;;;;;;;9.15;2.08;;;;;;;15.12;90.79;99464.50;5085348;28;20046;-75
2021/08/06 05:23:58;;;;;;;10.95;1.75;;;;;;;15.13;90.79;99468.97;5066512;28;20070;-74
2021/08/06 05:26:43;;;;;;;11.02;2.20;;;;;;;15.14;90.45;99464.97;5099567;28;20501;-75
2021/08/06 05:29:29;;;;;;;11.90;2.08;;;;;;;15.14;90.12;99464.97;5088870;27;20020;-74
2021/08/06 05:32:15;;;;;;;11.68;2.05;;;;;;;15.14;90.63;99467.78;5078950;28;20480;-75
2021/08/06 05:35:01;;;;;;;10.80;1.60;;;;;;;15.16;90.95;99469.06;5081912;28;20407;-75
2021/08/06 05:37:47;;;;;;;11.30;1.88;;;;;;;15.18;91.27;99472.34;5081744;27;20558;-75
2021/08/06 05:40:32;;;;;;;12.98;2.25;;;;;;;15.23;92.31;99476.84;5085988;28;20043;-75
2021/08/06 05:43:18;;;;;;;13.63;2.25;;;;;;;15.27;91.83;99475.00;5082656;28;20476;-75
2021/08/06 05:46:04;;;;;;;8.43;2.17;;;;;;;15.30;91.88;99474.31;5075707;28;20080;-75
2021/08/06 05:48:50;;;;;;;8.23;1.92;;;;;;;15.37;92.04;99468.91;5066556;28;20065;-74
2021/08/06 05:51:36;;;;;;;12.98;2.17;;;;;;;15.41;91.74;99464.25;5072401;28;20036;-75
2021/08/06 05:54:21;;;;;;;9.05;1.92;;;;;;;15.45;91.56;99480.34;5069102;28;20062;-74
2021/08/06 05:57:07;;;;;;;11.13;2.10;;;;;;;15.49;91.13;99482.09;5076455;28;20036;-75
2021/08/06 05:59:53;;;;;;;10.73;2.50;;;;;;;15.53;91.33;99483.00;5084097;28;20036;-75
2021/08/06 06:02:39;;;;;;;11.18;2.38;;;;;;;15.57;91.46;99488.69;5068514;28;20036;-75
2021/08/06 06:05:24;;;;;;;11.52;2.40;;;;;;;15.60;91.43;99488.84;5071371;28;20132;-75
2021/08/06 06:08:10;;;;;;;8.07;2.00;;;;;;;15.60;91.00;99493.59;5052953;28;20124;-75
2021/08/06 06:10:56;;;;;;;14.80;2.35;;;;;;;15.62;91.68;99491.25;5072296;28;20485;-75
2021/08/06 06:13:42;;;;;;;13.05;2.28;;;;;;;15.65;91.17;99488.56;5070568;28;20102;-75
2021/08/06 06:16:28;;;;;;;11.25;2.10;;;;;;;15.69;91.07;99497.13;5054051;28;20139;-75
2021/08/06 06:19:16;;;;;;;10.55;1.83;;;;;;;15.73;91.33;99494.44;5055652;28;20072;-75
2021/08/06 06:22:01;;;;;;;12.38;2.05;;;;;;;15.77;90.74;99490.56;5066696;28;20066;-75
2021/08/06 06:24:47;;;;;;;7.55;2.13;;;;;;;15.81;90.56;99499.88;5074456;28;20558;-75
2021/08/06 06:27:33;;;;;;;16.10;2.65;;;;;;;15.83;90.81;99497.56;5065665;28;20035;-75
2021/08/06 06:30:20;;;;;;;15.25;2.58;;;;;;;15.86;90.52;99491.25;5073223;28;20045;-75
2021/08/06 06:33:06;;;;;;;9.50;2.35;;;;;;;15.90;90.38;99501.72;5057165;28;20039;-75
2021/08/06 06:35:52;;;;;;;10.43;2.35;;;;;;;15.94;90.08;99494.28;5081318;28;20052;-74
2021/08/06 06:38:38;;;;;;;8.43;2.35;;;;;;;15.96;89.91;99503.91;5065333;28;21593;-75
2021/08/06 06:41:23;;;;;;;11.57;1.98;;;;;;;16.00;89.97;99506.84;5035723;28;20571;-75
2021/08/06 06:44:09;;;;;;;9.77;2.03;;;;;;;16.03;89.87;99503.34;5054416;28;20028;-75
2021/08/06 06:46:55;;;;;;;7.47;1.80;;;;;;;16.06;89.68;99511.03;5073025;28;20032;-75
2021/08/06 06:49:41;;;;;;;12.00;2.15;;;;;;;16.07;89.53;99509.84;5053178;28;20067;-75
2021/08/06 06:52:26;;;;;;;9.93;2.00;;;;;;;16.12;89.75;99515.19;5066100;28;20037;-75
2021/08/06 06:55:12;;;;;;;11.57;1.95;;;;;;;16.15;90.54;99513.66;5069078;28;20048;-75
2021/08/06 06:57:58;;;;;;;10.13;2.15;;;;;;;16.17;91.03;99520.56;5077888;28;20042;-74
2021/08/06 07:00:44;;;;;;;11.55;2.20;;;;;;;16.19;89.98;99525.81;5066661;28;20024;-75
2021/08/06 07:03:30;;;;;;;9.38;1.65;;;;;;;16.23;89.76;99521.13;5079477;28;20024;-75
2021/08/06 07:06:19;;;;;;;7.47;2.05;;;;;;;16.26;89.95;99524.00;5089267;28;20032;-74
2021/08/06 07:09:09;;;;;;;13.13;2.50;;;;;;;16.29;89.58;99528.09;5066665;28;20032;-75
2021/08/06 07:11:54;;;;;;;11.73;2.42;;;;;;;16.34;89.50;99527.84;5097430;28;20038;-74
2021/08/06 07:14:40;;;;;;;9.32;2.13;;;;;;;16.37;89.11;99535.53;5085260;28;20084;-75
2021/08/06 07:17:26;;;;;;;13.18;2.10;;;;;;;16.43;89.12;99547.28;5086700;28;20024;-75
2021/08/06 07:20:13;;;;;;;11.52;1.85;;;;;;;16.47;88.77;99540.63;5074299;28;20042;-74
2021/08/06 07:22:59;;;;;;;8.85;1.90;;;;;;;16.56;88.60;99551.69;5071939;28;20055;-75
2021/08/06 07:25:45;;;;;;;10.63;2.13;;;;;;;16.62;88.69;99546.63;5084691;28;20036;-75
2021/08/06 07:28:31;;;;;;;12.45;2.10;;;;;;;16.73;88.73;99550.53;5075665;28;20039;-75
2021/08/06 07:31:16;;;;;;;10.63;2.22;;;;;;;16.80;88.37;99555.53;5069426;28;20032;-74
2021/08/06 07:34:02;;;;;;;11.43;2.40;;;;;;;16.87;88.52;99558.56;5073753;28;20038;-75
2021/08/06 07:36:48;;;;;;;10.93;2.10;;;;;;;16.91;88.06;99559.44;5071434;28;20114;-75
2021/08/06 07:39:34;;;;;;;10.90;2.50;;;;;;;16.98;88.06;99562.47;5067769;28;20165;-74
2021/08/06 07:42:20;;;;;;;12.07;1.92;;;;;;;17.04;87.84;99561.00;5057987;28;20036;-75
2021/08/06 07:45:06;;;;;;;12.80;2.47;;;;;;;17.09;87.75;99565.56;5059535;28;20052;-75
2021/08/06 07:47:52;;;;;;;11.40;1.85;;;;;;;17.14;87.44;99563.28;5061674;28;20468;-79
2021/08/06 07:50:37;;;;;;;8.82;1.73;;;;;;;17.20;87.28;99561.03;5064920;27;20036;-74
2021/08/06 07:53:23;;;;;;;10.82;2.30;;;;;;;17.26;87.01;99556.78;5084874;28;20732;-74
2021/08/06 07:56:11;;;;;;;12.68;1.80;;;;;;;17.31;87.11;99558.50;5073642;28;20122;-74
2021/08/06 07:58:57;;;;;;;12.20;2.15;;;;;;;17.35;87.11;99553.78;5082978;28;20023;-74
2021/08/06 08:01:43;;;;;;;9.82;1.83;;;;;;;17.44;86.86;99557.22;5088342;28;20027;-74
2021/08/06 08:04:28;;;;;;;8.50;1.65;;;;;;;17.51;86.33;99551.78;5096914;28;20031;-74
2021/08/06 08:07:14;;;;;;;10.43;1.98;;;;;;;17.64;86.44;99558.09;5101351;28;20059;-74
2021/08/06 08:10:00;;;;;;;8.10;1.80;;;;;;;17.75;85.78;99561.19;5080469;28;20031;-75
2021/08/06 08:12:47;;;;;;;8.77;1.63;;;;;;;17.86;85.92;99568.69;5108453;28;20073;-75
2021/08/06 08:15:32;;;;;;;10.02;1.92;;;;;;;17.96;85.06;99570.09;5094144;28;20272;-75
2021/08/06 08:18:18;;;;;;;9.20;1.98;;;;;;;18.07;84.78;99576.78;5085310;27;20089;-75
2021/08/06 08:21:04;;;;;;;11.15;1.90;;;;;;;18.16;84.46;99567.31;5084246;28;20036;-75
2021/08/06 08:23:50;;;;;;;9.25;1.50;;;;;;;18.25;83.96;99577.19;5081575;28;20601;-75
2021/08/06 08:26:38;;;;;;;9.15;1.40;;;;;;;18.36;83.51;99574.59;5085154;28;20055;-77
2021/08/06 08:29:23;;;;;;;9.73;1.65;;;;;;;18.46;83.35;99576.00;5086137;28;20110;-77
2021/08/06 08:32:09;;;;;;;4.75;1.52;;;;;;;18.58;83.01;99584.28;5075892;28;20039;-77
2021/08/06 08:34:55;;;;;;;9.25;1.83;;;;;;;18.69;82.87;99571.25;5092629;28;20027;-77
2021/08/06 08:37:41;;;;;;;6.88;1.52;;;;;;;18.81;82.11;99581.56;5078007;28;20118;-77
2021/08/06 08:40:28;;;;;;;7.72;1.75;;;;;;;18.92;81.46;99565.69;5067821;28;20411;-77
2021/08/06 08:43:14;;;;;;;12.02;1.88;;;;;;;19.07;81.62;99574.41;5067786;28;20059;-77
2021/08/06 08:46:00;;;;;;;6.38;1.63;;;;;;;19.18;80.29;99579.03;5075753;28;20032;-77
2021/08/06 08:48:46;;;;;;;7.40;1.50;;;;;;;19.27;79.85;99578.78;5087179;28;20032;-77
2021/08/06 08:51:32;;;;;;;8.20;1.35;;;;;;;19.36;79.71;99579.38;5082999;28;20043;-76
2021/08/06 08:54:18;;;;;;;7.22;1.60;;;;;;;19.43;79.63;99579.47;5060099;28;20097;-76
2021/08/06 08:57:04;;;;;;;8.93;1.58;;;;;;;19.51;80.26;99571.97;5083918;28;20028;-76
2021/08/06 08:59:52;;;;;;;9.10;1.40;;;;;;;19.57;79.90;99575.25;5073614;28;20042;-76
2021/08/06 09:02:39;;;;;;;6.85;1.30;;;;;;;19.58;79.36;99576.88;5080852;28;20043;-77
2021/08/06 09:09:12;;;;;;;6.47;1.52;;;;;;;19.60;78.86;99580.13;5108868;27;20027;-74
2021/08/06 09:12:04;;;;;;;7.30;1.23;;;;;;;19.62;78.80;99586.22;5090477;28;20087;-74
2021/08/06 09:14:50;;;;;;;5.32;1.00;;;;;;;19.61;78.20;99591.03;5103309;28;20078;-74
2021/08/06 09:17:37;;;;;;;6.03;1.20;;;;;;;19.64;78.39;99581.84;5086811;28;20082;-74
2021/08/06 09:20:23;;;;;;;6.40;1.15;;;;;;;19.64;78.27;99587.47;5073959;28;20039;-74
2021/08/06 09:23:08;;;;;;;5.93;0.90;;;;;;;19.68;78.05;99579.09;5090381;28;20032;-74
2021/08/06 09:25:54;;;;;;;4.68;1.10;;;;;;;19.71;77.95;99580.34;5077328;28;20063;-74
2021/08/06 09:29:07;;;;;;;6.00;1.00;;;;;;;19.78;77.95;99586.06;5071516;28;20110;-74
2021/08/06 09:31:53;;;;;;;5.70;1.17;;;;;;;19.85;78.26;99589.00;5088737;28;20149;-74
2021/08/06 09:34:39;;;;;;;5.32;0.90;;;;;;;19.94;78.34;99609.28;5101270;28;20041;-72
2021/08/06 09:37:25;;;;;;;7.05;1.27;;;;;;;19.98;79.80;99624.25;5086237;28;20063;-72
2021/08/06 09:40:12;;;;;;;6.95;1.10;;;;;;;20.00;80.14;99623.84;5103648;27;20028;-72
2021/08/06 09:43:03;;;;;;;5.10;1.08;;;;;;;19.97;79.47;99613.34;5087037;27;20081;-71
2021/08/06 09:45:49;;;;;;;7.13;1.25;;;;;;;19.92;79.58;99602.38;5088677;28;20036;-72
2021/08/06 09:48:35;;;;;;;5.72;1.05;;;;;;;19.88;80.74;99602.34;5096516;27;20057;-72
2021/08/06 09:51:23;;;;;;;7.13;1.45;;;;;;;19.88;81.42;99607.97;5071972;27;20046;-71
2021/08/06 09:54:26;;;;;;;8.27;1.50;;;;;;;19.91;82.17;99595.94;5090200;27;20050;-71
2021/08/06 09:57:11;;;;;;;7.15;1.30;;;;;;;19.95;82.04;99601.66;5082686;28;20031;-71
2021/08/06 09:59:58;;;;;;;8.60;1.42;;;;;;;19.99;83.28;99597.69;5076411;28;20039;-74
2021/08/06 10:02:44;;;;;;;6.68;1.25;;;;;;;20.04;83.07;99594.53;5074925;28;20044;-74
2021/08/06 10:05:31;;;;;;;6.88;1.05;;;;;;;20.08;82.10;99603.84;5075119;28;20035;-74
2021/08/06 10:08:17;;;;;;;8.70;1.55;;;;;;;20.14;82.60;99600.69;5075897;28;20035;-74
2021/08/06 10:11:03;;;;;;;5.40;1.08;;;;;;;20.19;82.51;99600.38;5090056;28;20495;-74
2021/08/06 10:13:49;;;;;;;4.32;0.98;;;;;;;20.22;81.84;99602.44;5088425;27;20040;-74
2021/08/06 10:16:35;;;;;;;5.22;1.17;;;;;;;20.27;81.52;99602.91;5068645;27;20032;-74
2021/08/06 10:19:20;;;;;;;5.20;1.20;;;;;;;20.31;81.72;99606.59;5077747;28;20036;-74
2021/08/06 10:22:07;;;;;;;6.03;1.23;;;;;;;20.40;81.96;99602.69;5074088;28;20475;-74
2021/08/06 10:24:53;;;;;;;7.50;1.30;;;;;;;20.47;81.24;99597.13;5087730;27;20495;-74
2021/08/06 10:27:43;;;;;;;7.80;1.42;;;;;;;20.56;80.75;99602.50;5078972;28;20101;-74
2021/08/06 10:30:34;;;;;;;6.93;1.20;;;;;;;20.63;80.40;99597.78;5075952;28;20040;-74
2021/08/06 10:33:26;;;;;;;6.65;1.20;;;;;;;20.77;79.31;99601.97;5085909;28;20024;-74
2021/08/06 10:36:12;;;;;;;7.95;1.13;;;;;;;20.84;78.74;99599.22;5081487;28;20503;-74
2021/08/06 10:38:58;;;;;;;3.03;0.95;;;;;;;20.91;77.99;99597.28;5083517;28;20504;-74
2021/08/06 10:41:50;;;;;;;3.15;0.93;;;;;;;20.98;76.92;99602.22;5080075;28;20032;-74
2021/08/06 10:44:57;;;;;;;5.10;0.98;;;;;;;21.06;77.66;99598.28;5067704;28;20059;-74
2021/08/06 10:47:50;;;;;;;2.80;0.75;;;;;;;21.13;76.90;99608.81;5088599;28;20737;-74
2021/08/06 10:50:36;;;;;;;5.13;0.93;;;;;;;21.16;77.26;99603.19;5087266;28;20043;-74
2021/08/06 10:53:24;;;;;;;6.55;1.10;;;;;;;21.17;76.42;99602.03;5077949;28;20036;-74
2021/08/06 10:56:15;;;;;;;4.15;0.70;;;;;;;21.19;75.89;99605.25;5095175;28;20036;-74
2021/08/06 10:59:10;;;;;;;3.20;0.77;;;;;;;21.25;75.46;99613.38;5110903;27;20685;-74
2021/08/06 11:01:56;;;;;;;2.75;0.60;;;;;;;21.32;75.71;99593.69;5099520;28;20031;-74
2021/08/06 11:04:45;;;;;;;7.18;0.82;;;;;;;21.53;75.69;99593.88;5070865;28;20038;-74
2021/08/06 11:07:34;;;;;;;4.70;0.80;;;;;;;21.72;75.27;99594.84;5073858;27;20036;-74
2021/08/06 11:10:49;;;;;;;4.28;0.80;;;;;;;22.03;74.03;99588.59;5074047;28;20451;-75
2021/08/06 11:13:35;;;;;;;3.92;0.70;;;;;;;22.32;73.95;99591.66;5072384;28;20020;-74
2021/08/06 11:16:21;;;;;;;3.60;0.65;;;;;;;22.59;71.88;99588.53;5117805;28;20032;-75
2021/08/06 11:19:07;;;;;;;3.90;0.60;;;;;;;22.85;72.04;99573.28;5090797;28;20035;-74
2021/08/06 11:21:52;;;;;;;2.67;0.73;;;;;;;23.15;71.18;99578.59;5088116;28;20032;-74
2021/08/06 11:24:43;;;;;;;3.78;0.60;;;;;;;23.41;70.54;99585.94;5064630;28;20027;-75
2021/08/06 11:27:55;;;;;;;3.03;0.50;;;;;;;23.67;69.08;99579.06;5080983;28;20491;-75
2021/08/06 11:30:41;;;;;;;2.63;0.57;;;;;;;23.90;68.36;99583.50;5086951;28;20028;-75
2021/08/06 11:33:27;;;;;;;2.15;0.40;;;;;;;24.11;67.11;99577.81;5074810;28;20035;-75
2021/08/06 11:36:16;;;;;;;1.80;0.57;;;;;;;24.19;65.47;99575.78;5069277;28;20116;-75
2021/08/06 11:39:10;;;;;;;2.53;0.40;;;;;;;24.27;63.54;99583.06;5067242;28;20028;-74
2021/08/06 11:41:56;;;;;;;1.88;0.40;;;;;;;24.31;61.99;99576.13;5083205;28;20500;-74
2021/08/06 11:44:53;;;;;;;1.65;0.32;;;;;;;24.44;63.42;99573.69;5072545;27;20031;-75
2021/08/06 11:47:46;;;;;;;2.88;0.32;;;;;;;24.54;60.73;99583.38;5090226;27;20421;-75
2021/08/06 11:50:46;;;;;;;2.08;0.45;;;;;;;24.72;62.17;99569.13;5087438;28;20043;-75
2021/08/06 11:53:32;;;;;;;2.10;0.52;;;;;;;24.87;61.02;99572.69;5085482;28;20373;-75
2021/08/06 11:56:19;;;;;;;2.50;0.40;;;;;;;25.02;60.47;99571.38;5085922;28;20035;-75
2021/08/06 11:59:08;;;;;;;1.75;0.40;;;;;;;25.14;59.64;99576.59;5072591;28;20085;-75
2021/08/06 12:02:16;;;;;;;1.90;0.40;;;;;;;25.32;58.84;99569.97;5087801;28;20043;-75
2021/08/06 12:05:22;;;;;;;2.50;0.40;;;;;;;25.51;57.99;99566.59;5085632;28;20070;-75
2021/08/06 12:08:15;;;;;;;3.05;0.60;;;;;;;25.58;56.79;99560.84;5098014;28;20034;-75
2021/08/06 12:11:07;;;;;;;1.17;0.25;;;;;;;25.74;57.61;99559.47;5086983;28;20043;-75
2021/08/06 12:14:01;;;;;;;1.27;0.40;;;;;;;25.71;56.21;99557.47;5104361;28;20028;-75
2021/08/06 12:16:47;;;;;;;2.50;0.32;;;;;;;25.85;56.56;99563.06;5085269;28;20039;-75
2021/08/06 12:19:33;;;;;;;2.97;0.43;;;;;;;25.95;57.40;99562.16;5099790;28;20044;-75
2021/08/06 12:22:19;;;;;;;1.77;0.50;;;;;;;26.06;55.87;99574.22;5087845;28;20043;-75
2021/08/06 12:25:12;;;;;;;4.05;0.40;;;;;;;26.12;54.81;99563.19;5076708;27;20039;-75
2021/08/06 12:27:59;;;;;;;1.30;0.30;;;;;;;26.25;55.34;99564.28;5069639;28;20040;-75
2021/08/06 12:30:45;;;;;;;1.70;0.50;;;;;;;26.40;55.73;99569.81;5086076;28;20092;-75
2021/08/06 12:33:31;;;;;;;2.55;0.38;;;;;;;26.49;55.76;99561.53;5071141;28;20395;-76
2021/08/06 12:36:20;;;;;;;2.53;0.47;;;;;;;26.61;54.77;99560.22;5083471;28;20522;-75
2021/08/06 12:39:13;;;;;;;3.15;0.50;;;;;;;26.77;55.83;99566.09;5087401;28;20044;-75
2021/08/06 12:42:18;;;;;;;1.55;0.40;;;;;;;26.83;54.96;99561.56;5081613;28;20028;-75
2021/08/06 12:45:16;;;;;;;3.72;0.70;;;;;;;26.89;54.38;99554.13;5079940;28;20399;-75
2021/08/06 12:48:03;;;;;;;1.85;0.50;;;;;;;26.87;53.43;99553.75;5060664;28;20032;-75
2021/08/06 12:50:49;;;;;;;4.55;0.63;;;;;;;26.89;52.55;99562.69;5089282;28;20062;-75
2021/08/06 12:53:35;;;;;;;2.65;0.50;;;;;;;26.95;51.22;99552.41;5061498;28;20620;-75
2021/08/06 12:56:20;;;;;;;1.70;0.40;;;;;;;27.02;51.92;99557.19;5069858;28;20395;-75
2021/08/06 12:59:16;;;;;;;2.58;0.60;;;;;;;27.07;52.18;99551.03;5069215;28;20041;-75
2021/08/06 13:02:13;;;;;;;2.92;0.60;;;;;;;26.94;52.62;99542.28;5077273;28;20054;-75
2021/08/06 13:05:08;;;;;;;2.50;0.60;;;;;;;27.11;52.74;99539.59;5089925;28;20431;-74
2021/08/06 13:07:54;;;;;;;2.22;0.43;;;;;;;27.20;52.46;99542.72;5074152;28;20028;-75